Time;durP1;ratioP1;P1;durP2;ratioP2;P2;SDS_P1;SDS_P2;PMS_P1;PMS_P2;Temp;Humidity;BMP_temperature;BMP_pressure;BME280_temperature;BME280_humidity;BME280_pressure;Samples;Min_cycle;Max_cycle;Signal;HPM_P1;HPM_P2
2023/05/12 00:01:56;;;;;;;4.53;4.07;;;12.10;99.90;;;;;;5060755;28;20511;-83
2023/05/12 00:04:21;;;;;;;4.45;4.05;;;12.10;99.90;;;;;;5059205;28;20032;-83
2023/05/12 00:06:47;;;;;;;4.40;4.00;;;12.10;99.90;;;;;;5062910;28;20024;-83
2023/05/12 00:09:13;;;;;;;6.40;4.40;;;12.00;99.90;;;;;;5060106;28;20044;-82
2023/05/12 00:11:38;;;;;;;4.80;4.28;;;12.10;99.90;;;;;;5042180;28;20032;-83
2023/05/12 00:14:09;;;;;;;5.03;4.53;;;12.10;99.90;;;;;;5059710;28;20038;-83
2023/05/12 00:16:35;;;;;;;7.78;4.40;;;12.00;99.90;;;;;;5057193;28;20035;-83
2023/05/12 00:19:00;;;;;;;7.57;4.90;;;12.00;99.90;;;;;;5064501;28;20393;-82
2023/05/12 00:21:26;;;;;;;6.05;5.10;;;12.00;99.90;;;;;;5059108;28;20037;-85
2023/05/12 00:23:51;;;;;;;6.13;5.50;;;12.00;99.90;;;;;;5061477;28;20094;-82
2023/05/12 00:26:17;;;;;;;6.47;5.00;;;12.00;99.90;;;;;;5057012;28;20033;-82
2023/05/12 00:28:42;;;;;;;7.97;5.07;;;12.10;99.90;;;;;;5057052;28;20040;-84
2023/05/12 00:31:08;;;;;;;8.15;4.63;;;12.10;99.90;;;;;;5059813;28;20025;-83
2023/05/12 00:33:34;;;;;;;9.55;5.55;;;12.10;99.90;;;;;;5044326;28;20039;-82
2023/05/12 00:36:01;;;;;;;16.92;5.93;;;12.10;99.90;;;;;;5061338;28;20048;-82
2023/05/12 00:38:28;;;;;;;5.75;5.18;;;12.00;99.90;;;;;;5060315;28;20094;-84
2023/05/12 00:40:54;;;;;;;5.95;5.15;;;12.00;99.90;;;;;;5057007;28;20040;-83
2023/05/12 00:43:20;;;;;;;5.72;5.05;;;12.00;99.90;;;;;;5063539;28;20037;-83
2023/05/12 00:45:46;;;;;;;5.80;5.20;;;12.00;99.90;;;;;;5059324;28;20032;-83
2023/05/12 00:48:12;;;;;;;7.30;5.18;;;12.00;99.90;;;;;;5059360;28;20052;-83
2023/05/12 00:50:37;;;;;;;7.38;4.68;;;11.90;99.90;;;;;;5062346;28;20272;-83
2023/05/12 00:53:07;;;;;;;6.47;5.50;;;12.00;99.90;;;;;;5063440;28;20501;-87
2023/05/12 00:55:32;;;;;;;10.35;5.20;;;12.00;99.90;;;;;;5062089;28;20040;-82
2023/05/12 00:57:58;;;;;;;8.48;4.55;;;12.00;99.90;;;;;;5062562;28;20109;-83
2023/05/12 01:00:24;;;;;;;7.40;4.30;;;12.00;99.90;;;;;;5057311;28;20045;-83
2023/05/12 01:02:50;;;;;;;5.22;4.65;;;12.00;99.90;;;;;;5064666;28;20478;-84
2023/05/12 01:05:15;;;;;;;5.03;4.47;;;12.00;99.90;;;;;;5062780;28;20143;-84
2023/05/12 01:07:41;;;;;;;7.28;4.60;;;12.00;99.90;;;;;;5062604;28;20060;-83
2023/05/12 01:10:20;;;;;;;7.00;5.10;;;12.00;99.90;;;;;;5033703;28;20043;-83
2023/05/12 01:12:47;;;;;;;23.00;6.63;;;12.00;99.90;;;;;;4992308;28;20096;-82
2023/05/12 01:15:12;;;;;;;10.23;5.47;;;12.00;99.90;;;;;;4992988;28;20051;-83
2023/05/12 01:17:43;;;;;;;10.68;4.65;;;12.00;99.90;;;;;;4995144;28;20035;-83
2023/05/12 01:20:11;;;;;;;5.72;4.97;;;12.00;99.90;;;;;;4979916;28;20227;-83
2023/05/12 01:22:36;;;;;;;5.47;4.60;;;11.90;99.90;;;;;;4988800;28;20122;-84
2023/05/12 01:25:08;;;;;;;5.00;4.50;;;11.90;99.90;;;;;;4969194;28;20054;-83
2023/05/12 01:27:35;;;;;;;11.98;4.85;;;11.90;99.90;;;;;;4993232;28;20075;-83
2023/05/12 01:30:03;;;;;;;6.18;5.00;;;11.90;99.90;;;;;;4975666;28;20025;-84
2023/05/12 01:32:29;;;;;;;9.18;4.90;;;11.80;99.90;;;;;;4968404;28;20049;-84
2023/05/12 01:34:55;;;;;;;10.75;5.22;;;11.80;99.90;;;;;;4960024;28;20464;-85
2023/05/12 01:37:21;;;;;;;6.43;5.03;;;11.80;99.90;;;;;;4944280;28;20541;-86
2023/05/12 01:39:46;;;;;;;13.98;5.18;;;11.80;99.90;;;;;;4962451;28;20066;-82
2023/05/12 01:42:12;;;;;;;6.10;5.03;;;11.80;99.90;;;;;;5022898;28;20064;-83
2023/05/12 01:44:38;;;;;;;4.97;4.45;;;11.70;99.90;;;;;;5020409;28;20035;-83
2023/05/12 01:47:03;;;;;;;9.23;5.30;;;11.70;99.90;;;;;;4954554;28;20077;-82
2023/05/12 01:49:29;;;;;;;11.52;4.65;;;11.70;99.90;;;;;;4980591;28;20035;-83
2023/05/12 01:51:55;;;;;;;5.65;4.45;;;11.70;99.90;;;;;;4985746;28;20029;-83
2023/05/12 01:54:20;;;;;;;4.72;4.00;;;11.70;99.90;;;;;;5004241;28;20422;-85
2023/05/12 01:56:46;;;;;;;5.05;3.92;;;11.60;99.90;;;;;;4963638;28;20482;-82
2023/05/12 01:59:11;;;;;;;11.80;4.22;;;11.60;99.90;;;;;;5044430;28;20502;-83
2023/05/12 02:01:37;;;;;;;8.35;4.80;;;11.50;99.90;;;;;;4950379;28;20039;-83
2023/05/12 02:04:03;;;;;;;5.78;4.03;;;11.50;99.90;;;;;;4985442;28;20066;-85
2023/05/12 02:06:30;;;;;;;7.88;4.35;;;11.50;99.90;;;;;;4976018;28;20451;-82
2023/05/12 02:08:56;;;;;;;12.30;5.53;;;11.50;99.90;;;;;;5016274;28;20477;-83
2023/05/12 02:11:22;;;;;;;4.50;4.10;;;11.50;99.90;;;;;;5060651;28;20041;-83
2023/05/12 02:13:47;;;;;;;5.10;4.60;;;11.50;99.90;;;;;;5062453;28;20040;-83
2023/05/12 02:16:13;;;;;;;4.47;4.07;;;11.50;99.90;;;;;;5059526;28;20044;-82
2023/05/12 02:18:39;;;;;;;4.30;3.95;;;11.50;99.90;;;;;;5060945;28;20041;-84
2023/05/12 02:21:05;;;;;;;4.35;3.95;;;11.40;99.90;;;;;;5063442;28;20040;-84
2023/05/12 02:23:30;;;;;;;4.32;3.92;;;11.50;99.90;;;;;;5061674;28;20109;-84
2023/05/12 02:25:56;;;;;;;4.55;4.15;;;11.40;99.90;;;;;;5063740;28;20079;-83
2023/05/12 02:28:22;;;;;;;5.25;3.95;;;11.40;99.90;;;;;;5062223;28;20068;-83
2023/05/12 02:30:49;;;;;;;20.02;4.95;;;11.40;99.90;;;;;;5062503;28;20033;-82
2023/05/12 02:33:16;;;;;;;4.70;4.28;;;11.30;99.90;;;;;;5061113;28;20036;-83
2023/05/12 02:35:43;;;;;;;7.28;4.45;;;11.30;99.90;;;;;;5062547;28;20035;-82
2023/05/12 02:38:09;;;;;;;5.53;4.93;;;11.30;99.90;;;;;;5057871;28;20628;-84
2023/05/12 02:40:35;;;;;;;4.45;4.05;;;11.30;99.90;;;;;;5061612;28;20043;-86
2023/05/12 02:43:00;;;;;;;4.50;4.10;;;11.30;99.90;;;;;;5062067;28;20037;-83
2023/05/12 02:45:26;;;;;;;4.57;4.05;;;11.30;99.90;;;;;;5063698;28;20060;-83
2023/05/12 02:47:52;;;;;;;4.85;4.15;;;11.40;99.90;;;;;;5063752;28;20171;-83
2023/05/12 02:50:19;;;;;;;4.13;3.72;;;11.40;99.90;;;;;;5061814;28;20119;-83
2023/05/12 02:52:46;;;;;;;4.85;3.70;;;11.40;99.90;;;;;;5058821;28;20064;-82
2023/05/12 02:55:12;;;;;;;8.10;4.95;;;11.40;99.90;;;;;;5060073;28;20540;-83
2023/05/12 02:57:38;;;;;;;5.72;4.47;;;11.40;99.90;;;;;;5064150;28;20036;-83
2023/05/12 03:00:05;;;;;;;4.68;3.90;;;11.40;99.90;;;;;;5063883;28;20028;-83
2023/05/12 03:02:39;;;;;;;9.85;4.25;;;11.40;99.90;;;;;;5061320;28;20033;-83
2023/05/12 03:05:05;;;;;;;3.80;3.50;;;11.40;99.90;;;;;;5060100;28;20048;-83
2023/05/12 03:07:31;;;;;;;5.50;4.13;;;11.30;99.90;;;;;;5061024;28;20068;-82
2023/05/12 03:09:57;;;;;;;5.05;3.97;;;11.30;99.90;;;;;;5060986;28;20095;-82
2023/05/12 03:12:23;;;;;;;3.90;3.60;;;11.30;99.90;;;;;;5061057;28;20033;-83
2023/05/12 03:14:48;;;;;;;4.38;3.88;;;11.30;99.90;;;;;;5062160;28;20078;-83
2023/05/12 03:17:14;;;;;;;4.13;3.72;;;11.30;99.90;;;;;;5061341;28;20070;-82
2023/05/12 03:19:39;;;;;;;3.92;3.63;;;11.30;99.90;;;;;;5064643;28;20242;-83
2023/05/12 03:22:08;;;;;;;5.13;4.47;;;11.20;99.90;;;;;;5066887;28;20039;-83
2023/05/12 03:24:35;;;;;;;9.98;4.68;;;11.20;99.90;;;;;;5063804;28;20028;-83
2023/05/12 03:27:01;;;;;;;7.18;4.50;;;11.10;99.90;;;;;;5061987;28;20086;-83
2023/05/12 03:29:27;;;;;;;9.65;4.40;;;11.10;99.90;;;;;;5060600;28;20044;-87
2023/05/12 03:31:52;;;;;;;7.50;4.90;;;11.10;99.90;;;;;;5042493;28;20170;-84
2023/05/12 03:34:20;;;;;;;4.95;4.47;;;11.10;99.90;;;;;;5060166;28;20471;-83
2023/05/12 03:36:45;;;;;;;5.95;4.78;;;11.00;99.90;;;;;;5060497;28;20041;-83
2023/05/12 03:39:11;;;;;;;4.65;4.25;;;11.00;99.90;;;;;;5047015;28;20482;-84
2023/05/12 03:41:37;;;;;;;7.13;5.10;;;11.00;99.90;;;;;;5062673;28;20071;-84
2023/05/12 03:44:07;;;;;;;9.60;5.57;;;11.00;99.90;;;;;;5062554;28;20039;-83
2023/05/12 03:46:33;;;;;;;7.72;5.05;;;11.00;99.90;;;;;;5063959;28;20044;-83
2023/05/12 03:48:59;;;;;;;5.40;4.90;;;11.10;99.90;;;;;;5063790;28;20048;-87
2023/05/12 03:51:24;;;;;;;7.72;5.60;;;11.00;99.90;;;;;;5059287;28;20025;-83
2023/05/12 03:53:51;;;;;;;7.63;6.88;;;11.10;99.90;;;;;;5058952;28;20520;-85
2023/05/12 03:56:17;;;;;;;9.07;7.35;;;11.00;99.90;;;;;;5063738;28;20115;-85
2023/05/12 03:58:45;;;;;;;8.48;7.57;;;11.10;99.90;;;;;;5065038;28;20119;-84
2023/05/12 04:01:10;;;;;;;9.43;7.63;;;11.10;99.90;;;;;;5063460;28;20551;-84
2023/05/12 04:03:36;;;;;;;7.57;6.80;;;11.10;99.90;;;;;;5055445;28;20025;-84
2023/05/12 04:06:04;;;;;;;6.78;5.57;;;11.10;99.90;;;;;;5058565;28;20480;-84
2023/05/12 04:08:30;;;;;;;6.63;5.70;;;11.10;99.90;;;;;;5056959;28;20281;-84
2023/05/12 04:10:57;;;;;;;6.28;5.03;;;11.10;99.90;;;;;;5059550;28;20075;-84
2023/05/12 04:13:23;;;;;;;15.65;6.13;;;11.20;99.90;;;;;;5062764;28;20111;-84
2023/05/12 04:15:55;;;;;;;6.00;5.25;;;11.20;99.90;;;;;;5069305;28;20116;-88
2023/05/12 04:18:21;;;;;;;5.93;5.30;;;11.20;99.90;;;;;;5064804;28;20050;-84
2023/05/12 04:21:02;;;;;;;9.50;7.15;;;11.20;99.90;;;;;;5065017;28;20120;-83
2023/05/12 04:23:29;;;;;;;8.60;7.70;;;11.20;99.90;;;;;;5065710;28;20029;-84
2023/05/12 04:25:55;;;;;;;7.28;6.28;;;11.20;99.90;;;;;;5066290;28;20055;-84
2023/05/12 04:28:20;;;;;;;8.15;7.05;;;11.20;99.90;;;;;;5061831;28;20076;-84
2023/05/12 04:30:46;;;;;;;6.82;6.13;;;11.30;99.90;;;;;;5050979;28;20125;-84
2023/05/12 04:33:12;;;;;;;7.10;6.40;;;11.30;99.90;;;;;;5062413;28;20033;-84
2023/05/12 04:35:37;;;;;;;8.90;7.75;;;11.30;99.90;;;;;;5067034;28;20028;-84
2023/05/12 04:38:03;;;;;;;11.23;8.82;;;11.30;99.90;;;;;;5059373;28;20032;-84
2023/05/12 04:40:29;;;;;;;12.90;7.93;;;11.40;99.90;;;;;;5064012;28;20037;-84
2023/05/12 04:42:54;;;;;;;10.30;8.55;;;11.40;99.90;;;;;;5066487;28;20033;-84
2023/05/12 04:45:20;;;;;;;9.73;7.95;;;11.40;99.90;;;;;;5067261;28;20036;-88
2023/05/12 04:47:46;;;;;;;8.20;6.85;;;11.40;99.90;;;;;;5063726;28;20049;-83
2023/05/12 04:50:12;;;;;;;8.25;6.55;;;11.50;99.90;;;;;;5062351;28;20051;-84
2023/05/12 04:52:38;;;;;;;6.57;5.85;;;11.50;99.90;;;;;;5061980;28;20029;-84
2023/05/12 04:55:04;;;;;;;6.25;5.63;;;11.50;99.90;;;;;;5065072;28;20851;-84
2023/05/12 04:57:30;;;;;;;8.90;5.60;;;11.50;99.90;;;;;;5064409;28;20038;-85
2023/05/12 04:59:58;;;;;;;7.75;6.43;;;11.50;99.90;;;;;;5061022;28;20108;-84
2023/05/12 05:02:24;;;;;;;6.40;4.80;;;11.50;99.90;;;;;;5067973;28;20090;-84
2023/05/12 05:04:49;;;;;;;6.03;5.43;;;11.50;99.90;;;;;;5064480;28;20517;-85
2023/05/12 05:07:15;;;;;;;7.82;5.53;;;11.60;99.90;;;;;;5067020;28;20135;-84
2023/05/12 05:09:41;;;;;;;8.80;6.57;;;11.60;99.90;;;;;;5064528;28;20504;-85
2023/05/12 05:12:07;;;;;;;11.32;7.85;;;11.60;99.90;;;;;;5065872;28;20039;-84
2023/05/12 05:14:32;;;;;;;10.35;8.00;;;11.60;99.90;;;;;;5061358;28;20510;-84
2023/05/12 05:16:59;;;;;;;15.10;8.32;;;11.70;99.90;;;;;;5059703;28;20063;-86
2023/05/12 05:19:25;;;;;;;8.55;7.43;;;11.70;99.90;;;;;;5061392;28;20525;-85
2023/05/12 05:21:52;;;;;;;9.73;7.47;;;11.70;99.90;;;;;;5060319;28;20102;-84
2023/05/12 05:24:17;;;;;;;10.35;7.70;;;11.70;99.90;;;;;;5057508;28;20039;-84
2023/05/12 05:26:44;;;;;;;13.65;10.52;;;11.70;99.90;;;;;;5060675;28;20040;-84
2023/05/12 05:29:10;;;;;;;13.57;10.05;;;11.80;99.90;;;;;;5062521;28;20095;-85
2023/05/12 05:31:36;;;;;;;10.38;8.77;;;11.80;99.90;;;;;;5043426;28;20432;-83
2023/05/12 05:34:02;;;;;;;9.85;8.35;;;11.80;99.90;;;;;;5060975;28;20133;-87
2023/05/12 05:36:28;;;;;;;12.93;8.80;;;11.80;99.90;;;;;;5061992;28;20047;-84
2023/05/12 05:38:54;;;;;;;20.92;12.48;;;11.90;99.90;;;;;;5060540;28;20036;-85
2023/05/12 05:41:21;;;;;;;14.63;10.55;;;11.90;99.90;;;;;;5062222;28;20039;-84
2023/05/12 05:43:46;;;;;;;15.43;9.50;;;11.90;99.90;;;;;;5061467;28;20110;-84
2023/05/12 05:46:12;;;;;;;11.52;8.48;;;12.00;99.90;;;;;;5061923;28;20060;-84
2023/05/12 05:48:37;;;;;;;10.48;8.65;;;12.00;99.90;;;;;;5051833;28;20508;-84
2023/05/12 05:51:04;;;;;;;11.10;8.68;;;12.00;99.90;;;;;;5067386;28;20126;-84
2023/05/12 05:53:30;;;;;;;10.32;8.95;;;12.10;99.90;;;;;;5061799;28;20039;-84
2023/05/12 05:55:55;;;;;;;10.60;8.50;;;12.10;99.90;;;;;;5057006;28;20393;-85
2023/05/12 05:58:21;;;;;;;11.75;9.48;;;12.10;99.90;;;;;;5064718;28;20036;-83
2023/05/12 06:00:46;;;;;;;15.27;10.30;;;12.10;99.90;;;;;;5065844;28;20393;-84
2023/05/12 06:03:12;;;;;;;15.75;12.73;;;12.20;99.90;;;;;;5063403;28;20051;-86
2023/05/12 06:05:38;;;;;;;17.55;14.00;;;12.20;99.90;;;;;;5057274;28;20082;-85
2023/05/12 06:08:04;;;;;;;16.13;11.98;;;12.20;99.90;;;;;;5059338;28;20054;-84
2023/05/12 06:10:30;;;;;;;18.50;12.90;;;12.30;99.90;;;;;;5063105;28;20072;-84
2023/05/12 06:12:55;;;;;;;15.75;13.57;;;12.30;99.90;;;;;;5064515;28;20080;-84
2023/05/12 06:15:21;;;;;;;16.90;12.00;;;12.30;99.90;;;;;;5061747;28;20060;-87
2023/05/12 06:17:46;;;;;;;23.48;18.23;;;12.40;99.90;;;;;;5063691;28;20500;-87
2023/05/12 06:20:13;;;;;;;26.10;17.70;;;12.40;99.90;;;;;;5064838;28;20230;-84
2023/05/12 06:22:43;;;;;;;26.77;18.00;;;12.40;99.90;;;;;;5060029;28;20052;-84
2023/05/12 06:25:09;;;;;;;23.23;17.27;;;12.40;99.90;;;;;;5056801;28;20089;-85
2023/05/12 06:27:34;;;;;;;19.23;16.00;;;12.40;99.90;;;;;;5055902;28;21177;-85
2023/05/12 06:30:00;;;;;;;21.95;17.23;;;12.40;99.90;;;;;;5059707;28;20509;-84
2023/05/12 06:32:25;;;;;;;22.13;16.27;;;12.50;99.90;;;;;;5053406;28;20029;-84
2023/05/12 06:34:51;;;;;;;23.45;17.50;;;12.50;99.90;;;;;;5057947;28;20051;-84
2023/05/12 06:37:17;;;;;;;22.73;16.42;;;12.50;99.90;;;;;;5044582;28;20058;-84
2023/05/12 06:39:42;;;;;;;21.08;15.77;;;12.60;99.90;;;;;;5066483;28;21098;-84
2023/05/12 06:42:08;;;;;;;30.40;18.75;;;12.60;99.90;;;;;;5060239;28;20056;-86
2023/05/12 06:44:33;;;;;;;29.88;20.05;;;12.60;99.90;;;;;;5062246;28;20036;-84
2023/05/12 06:46:59;;;;;;;26.70;20.15;;;12.60;99.90;;;;;;5060059;28;20037;-83
2023/05/12 06:49:24;;;;;;;27.83;18.75;;;12.60;99.90;;;;;;5052876;28;20063;-85
2023/05/12 06:51:50;;;;;;;28.20;19.58;;;12.60;99.90;;;;;;5064818;28;20086;-83
2023/05/12 06:54:16;;;;;;;34.83;19.38;;;12.70;99.90;;;;;;5061909;28;20115;-84
2023/05/12 06:56:41;;;;;;;29.75;19.83;;;12.70;99.90;;;;;;5063030;28;20528;-84
2023/05/12 06:59:07;;;;;;;24.52;19.70;;;12.70;99.90;;;;;;5045492;28;20364;-84
2023/05/12 07:01:33;;;;;;;26.38;19.92;;;12.80;99.90;;;;;;5060839;28;20039;-85
2023/05/12 07:04:01;;;;;;;25.25;20.33;;;12.70;99.90;;;;;;5061071;28;20347;-84
2023/05/12 07:06:27;;;;;;;27.05;19.55;;;12.70;99.90;;;;;;5055094;28;20025;-84
2023/05/12 07:08:53;;;;;;;29.38;19.95;;;12.70;99.90;;;;;;5063445;28;20056;-85
2023/05/12 07:11:22;;;;;;;24.58;19.77;;;12.80;99.90;;;;;;5063149;28;20049;-88
2023/05/12 07:13:49;;;;;;;27.30;16.73;;;12.90;99.90;;;;;;5063274;28;20041;-85
2023/05/12 07:16:16;;;;;;;27.58;15.27;;;12.90;99.90;;;;;;5063176;28;20347;-84
2023/05/12 07:18:42;;;;;;;17.17;12.00;;;13.00;99.90;;;;;;5061285;28;20029;-85
2023/05/12 07:21:08;;;;;;;28.17;16.05;;;12.90;99.90;;;;;;5058566;28;20509;-86
2023/05/12 07:23:37;;;;;;;20.10;13.90;;;13.00;99.90;;;;;;5051070;28;20101;-88
2023/05/12 07:26:04;;;;;;;14.15;12.52;;;13.00;99.90;;;;;;5064236;28;20044;-84
2023/05/12 07:28:34;;;;;;;18.35;12.07;;;13.00;99.90;;;;;;5064051;28;20053;-86
2023/05/12 07:31:00;;;;;;;19.98;14.55;;;13.00;99.90;;;;;;5061367;28;20127;-84
2023/05/12 07:33:25;;;;;;;18.25;14.57;;;13.10;99.90;;;;;;5060816;28;20596;-86
2023/05/12 07:35:51;;;;;;;18.85;13.52;;;13.10;99.90;;;;;;5063286;28;20119;-85
2023/05/12 07:38:17;;;;;;;16.88;12.23;;;13.10;99.90;;;;;;5069346;28;20509;-85
2023/05/12 07:40:44;;;;;;;14.57;11.18;;;13.20;99.90;;;;;;5071931;28;20032;-85
2023/05/12 07:43:10;;;;;;;15.27;11.48;;;13.20;99.90;;;;;;5065008;28;20397;-86
2023/05/12 07:45:36;;;;;;;14.88;10.23;;;13.20;99.90;;;;;;5061727;28;20440;-85
2023/05/12 07:48:01;;;;;;;21.45;12.00;;;13.20;99.90;;;;;;5065824;28;20044;-85
2023/05/12 07:50:27;;;;;;;15.35;11.75;;;13.30;99.90;;;;;;5065158;28;20545;-85
2023/05/12 07:52:53;;;;;;;15.13;11.07;;;13.30;99.90;;;;;;5063331;28;20043;-85
2023/05/12 07:55:20;;;;;;;16.67;11.95;;;13.40;99.90;;;;;;5065151;28;20024;-85
2023/05/12 07:57:46;;;;;;;16.67;11.48;;;13.40;99.90;;;;;;5065599;28;20214;-86
2023/05/12 08:00:14;;;;;;;25.67;13.45;;;13.40;99.90;;;;;;5059480;28;20047;-86
2023/05/12 08:02:40;;;;;;;17.38;13.15;;;13.50;99.90;;;;;;5060727;28;20025;-87
2023/05/12 08:05:10;;;;;;;13.45;11.68;;;13.50;99.90;;;;;;5061075;28;20075;-86
2023/05/12 08:07:37;;;;;;;15.88;12.25;;;13.50;99.90;;;;;;5040010;28;20563;-86
2023/05/12 08:10:04;;;;;;;18.27;11.60;;;13.50;99.90;;;;;;5067289;28;20072;-86
2023/05/12 08:12:29;;;;;;;23.00;13.48;;;13.50;99.90;;;;;;5064050;28;20029;-86
2023/05/12 08:14:55;;;;;;;20.33;13.75;;;13.60;99.90;;;;;;5048694;28;20048;-83
2023/05/12 08:17:21;;;;;;;15.98;13.15;;;13.60;99.90;;;;;;5066251;28;20040;-88
2023/05/12 08:19:47;;;;;;;21.65;12.05;;;13.70;99.90;;;;;;5064783;28;20041;-87
2023/05/12 08:22:12;;;;;;;17.85;11.77;;;13.70;99.90;;;;;;5060580;28;20131;-87
2023/05/12 08:24:38;;;;;;;17.33;13.52;;;13.70;99.90;;;;;;5064775;28;20425;-86
2023/05/12 08:27:04;;;;;;;21.10;13.13;;;13.80;99.90;;;;;;5063454;28;20044;-84
2023/05/12 08:29:30;;;;;;;16.90;11.50;;;13.90;99.90;;;;;;5069529;28;20501;-86
2023/05/12 08:31:56;;;;;;;17.60;12.52;;;13.90;99.90;;;;;;5068628;28;20486;-87
2023/05/12 08:34:23;;;;;;;27.25;13.35;;;14.00;99.90;;;;;;5061820;28;20028;-86
2023/05/12 08:36:51;;;;;;;17.40;11.52;;;14.10;99.90;;;;;;5064740;28;20043;-86
2023/05/12 08:39:17;;;;;;;23.55;15.07;;;14.20;99.90;;;;;;5063060;28;20029;-85
2023/05/12 08:42:01;;;;;;;20.45;13.20;;;14.20;99.90;;;;;;5062786;28;20063;-86
2023/05/12 08:44:30;;;;;;;24.08;12.90;;;14.20;99.90;;;;;;5066451;28;20028;-87
2023/05/12 08:46:57;;;;;;;21.55;13.40;;;14.40;99.90;;;;;;5064169;28;20036;-88
2023/05/12 08:49:25;;;;;;;17.02;12.32;;;14.40;99.90;;;;;;5063498;28;20040;-86
2023/05/12 08:51:53;;;;;;;20.67;12.20;;;14.50;99.90;;;;;;5064655;28;20037;-86
2023/05/12 08:54:22;;;;;;;17.50;12.93;;;14.60;99.90;;;;;;5062079;28;20068;-89
2023/05/12 08:56:50;;;;;;;15.73;11.10;;;14.70;99.90;;;;;;5061923;28;20533;-86
2023/05/12 08:59:16;;;;;;;39.13;11.35;;;14.80;99.90;;;;;;5064379;28;20061;-86
2023/05/12 09:01:43;;;;;;;15.63;11.10;;;14.90;99.90;;;;;;5072677;28;20411;-85
2023/05/12 09:04:10;;;;;;;17.05;11.35;;;15.10;99.90;;;;;;5066054;28;20078;-90
2023/05/12 09:06:35;;;;;;;12.07;9.32;;;15.20;99.90;;;;;;5070078;28;20044;-86
2023/05/12 09:09:02;;;;;;;21.63;11.40;;;15.20;99.90;;;;;;5079195;28;20048;-84
2023/05/12 09:11:27;;;;;;;19.00;10.88;;;15.30;99.90;;;;;;5065385;28;20047;-85
2023/05/12 09:14:01;;;;;;;12.38;8.80;;;15.40;99.90;;;;;;5060647;28;20478;-86
2023/05/12 09:16:33;;;;;;;11.68;8.88;;;15.40;99.90;;;;;;5038428;28;20631;-85
2023/05/12 09:19:00;;;;;;;16.42;9.18;;;15.40;99.90;;;;;;5065790;28;20380;-85
2023/05/12 09:21:27;;;;;;;16.15;9.52;;;15.50;99.90;;;;;;5062949;28;20485;-85
2023/05/12 09:23:54;;;;;;;21.55;7.93;;;15.60;99.90;;;;;;5043296;28;20033;-85
2023/05/12 09:26:23;;;;;;;15.45;7.88;;;15.70;99.90;;;;;;5063007;28;20041;-84
2023/05/12 09:28:51;;;;;;;15.98;8.77;;;15.70;99.90;;;;;;5043822;28;20047;-84
2023/05/12 09:31:32;;;;;;;14.15;8.70;;;15.80;99.90;;;;;;5060255;28;20040;-88
2023/05/12 09:33:58;;;;;;;18.42;8.35;;;15.90;99.90;;;;;;5065060;28;20055;-84
2023/05/12 09:36:24;;;;;;;14.68;9.15;;;16.00;99.90;;;;;;5065342;28;20115;-86
2023/05/12 09:39:05;;;;;;;14.27;7.15;;;16.10;99.90;;;;;;5063939;28;20047;-83
2023/05/12 09:41:35;;;;;;;15.23;7.97;;;16.10;99.90;;;;;;5062968;28;20037;-83
2023/05/12 09:44:01;;;;;;;19.05;7.75;;;16.20;99.90;;;;;;5061509;28;20032;-83
2023/05/12 09:46:27;;;;;;;10.82;6.72;;;16.20;99.90;;;;;;5057655;28;20082;-84
2023/05/12 09:48:58;;;;;;;18.63;6.07;;;16.40;99.90;;;;;;5059502;28;20057;-87
2023/05/12 09:51:25;;;;;;;17.58;6.15;;;16.50;99.90;;;;;;5064632;28;20029;-86
2023/05/12 09:53:50;;;;;;;16.50;6.20;;;16.60;99.90;;;;;;5060565;28;20493;-85
2023/05/12 09:56:17;;;;;;;15.23;6.25;;;16.60;99.90;;;;;;5058619;28;20119;-85
2023/05/12 09:58:45;;;;;;;9.63;6.10;;;16.70;99.90;;;;;;5064518;28;20064;-85
2023/05/12 10:01:16;;;;;;;12.80;5.70;;;16.70;99.90;;;;;;5063796;28;20071;-85
2023/05/12 10:03:47;;;;;;;16.77;5.95;;;16.70;99.90;;;;;;5063305;28;20504;-85
2023/05/12 10:06:28;;;;;;;10.27;5.88;;;16.80;99.90;;;;;;5066770;28;20044;-83
2023/05/12 10:09:18;;;;;;;17.00;4.93;;;16.90;99.90;;;;;;5066656;28;20048;-91
2023/05/12 10:11:49;;;;;;;9.85;4.43;;;16.90;99.90;;;;;;5054571;28;20083;-86
2023/05/12 10:14:16;;;;;;;11.75;4.53;;;17.00;99.90;;;;;;5061344;28;20041;-90
2023/05/12 10:16:45;;;;;;;17.17;3.95;;;17.10;99.90;;;;;;5058864;28;20473;-87
2023/05/12 10:19:11;;;;;;;9.60;4.35;;;17.20;99.90;;;;;;5054523;28;20083;-90
2023/05/12 10:21:38;;;;;;;5.68;3.53;;;17.20;99.90;;;;;;5065301;28;20495;-84
2023/05/12 10:24:04;;;;;;;15.93;4.03;;;17.30;99.90;;;;;;5061109;28;20040;-86
2023/05/12 10:26:34;;;;;;;4.57;3.60;;;17.30;99.90;;;;;;5067710;28;20119;-92
2023/05/12 10:29:00;;;;;;;10.27;4.55;;;17.30;99.90;;;;;;5052644;28;20041;-86
2023/05/12 10:31:26;;;;;;;8.55;3.75;;;17.40;99.90;;;;;;5060324;28;20041;-88
2023/05/12 10:33:59;;;;;;;8.75;3.97;;;17.50;99.90;;;;;;5062105;28;20043;-88
2023/05/12 10:36:25;;;;;;;9.77;4.47;;;17.50;99.90;;;;;;5056627;28;20452;-87
2023/05/12 10:38:51;;;;;;;4.75;3.53;;;17.50;99.90;;;;;;5042715;28;20033;-86
2023/05/12 10:41:30;;;;;;;6.70;3.83;;;17.60;99.90;;;;;;5058699;28;20068;-85
2023/05/12 10:43:56;;;;;;;30.13;6.38;;;17.70;99.90;;;;;;5062439;28;20048;-85
2023/05/12 10:46:23;;;;;;;42.90;8.57;;;17.80;99.90;;;;;;5061855;28;20401;-86
2023/05/12 10:48:53;;;;;;;12.60;3.95;;;17.80;99.90;;;;;;5064986;28;20546;-87
2023/05/12 10:51:33;;;;;;;8.75;3.63;;;17.90;99.90;;;;;;5063015;28;20408;-88
2023/05/12 10:54:02;;;;;;;8.43;3.58;;;17.90;99.90;;;;;;5064656;28;20932;-90
2023/05/12 10:56:38;;;;;;;8.65;3.65;;;18.00;99.90;;;;;;5060877;28;20501;-84
2023/05/12 10:59:16;;;;;;;9.65;3.58;;;18.00;99.90;;;;;;5068773;28;20028;-87
2023/05/12 11:01:55;;;;;;;4.35;3.08;;;18.00;99.90;;;;;;5060147;28;20040;-87
2023/05/12 11:04:23;;;;;;;5.32;3.50;;;18.00;99.90;;;;;;5061487;28;20172;-87
2023/05/12 11:06:58;;;;;;;6.88;4.07;;;17.90;99.90;;;;;;5064352;28;20059;-88
2023/05/12 11:09:27;;;;;;;12.30;3.15;;;18.00;99.90;;;;;;5061426;28;20114;-87
2023/05/12 11:11:52;;;;;;;3.85;3.13;;;18.10;99.90;;;;;;5063579;28;20036;-88
2023/05/12 11:14:21;;;;;;;4.85;3.15;;;18.20;99.90;;;;;;5064460;28;20438;-88
2023/05/12 11:16:46;;;;;;;14.82;3.40;;;18.20;99.90;;;;;;5061914;28;20478;-88
2023/05/12 11:19:12;;;;;;;9.52;3.25;;;18.30;99.90;;;;;;5062948;28;20047;-86
2023/05/12 11:21:38;;;;;;;8.35;3.83;;;18.20;99.90;;;;;;5061485;28;20032;-86
2023/05/12 11:24:05;;;;;;;4.05;3.00;;;18.20;99.90;;;;;;5057431;28;20036;-88
2023/05/12 11:26:31;;;;;;;12.55;3.17;;;18.30;99.90;;;;;;5063058;28;20044;-88
2023/05/12 11:28:57;;;;;;;6.38;2.95;;;18.30;99.90;;;;;;5061970;28;20048;-88
2023/05/12 11:31:23;;;;;;;10.43;3.47;;;18.30;99.90;;;;;;5060782;28;20033;-88
2023/05/12 11:33:49;;;;;;;9.88;3.22;;;18.40;99.90;;;;;;5064203;28;20103;-85
2023/05/12 11:36:20;;;;;;;28.40;3.63;;;18.50;99.90;;;;;;5063898;28;20074;-87
2023/05/12 11:38:52;;;;;;;4.82;3.05;;;18.50;99.90;;;;;;5062939;28;20513;-90
2023/05/12 11:41:25;;;;;;;7.85;3.45;;;18.50;99.90;;;;;;5062405;28;20040;-90
2023/05/12 11:43:51;;;;;;;10.75;2.95;;;18.30;99.90;;;;;;5060254;28;20513;-89
2023/05/12 11:46:26;;;;;;;10.07;3.22;;;18.10;99.90;;;;;;5060176;28;20034;-88
2023/05/12 11:48:58;;;;;;;;;;;17.90;99.90;;;;;;5062909;28;20060;-88
2023/05/12 11:51:25;;;;;;;12.23;3.13;;;17.80;99.90;;;;;;5058603;28;19922;-90
2023/05/12 11:53:52;;;;;;;6.97;3.33;;;17.80;99.90;;;;;;5041372;28;20040;-87
2023/05/12 11:56:25;;;;;;;7.15;3.13;;;17.80;99.90;;;;;;5062894;28;20128;-88
2023/05/12 11:58:57;;;;;;;7.47;2.88;;;17.70;99.90;;;;;;5058897;28;20518;-91
2023/05/12 12:01:25;;;;;;;10.40;3.75;;;17.60;99.90;;;;;;5062266;28;20466;-89
2023/05/12 12:03:53;;;;;;;7.25;3.10;;;17.70;99.90;;;;;;5064021;28;20161;-92
2023/05/12 12:06:21;;;;;;;11.07;2.70;;;17.80;99.90;;;;;;5068709;28;20118;-90
2023/05/12 12:08:56;;;;;;;5.07;2.80;;;17.80;99.90;;;;;;5058157;28;20056;-90
2023/05/12 12:11:22;;;;;;;;;;;18.10;99.90;;;;;;5059934;28;20040;-91
2023/05/12 12:13:55;;;;;;;;;;;18.20;99.90;;;;;;5064448;28;19951;-92
2023/05/12 12:16:25;;;;;;;10.52;2.75;;;18.30;99.90;;;;;;5064203;28;19908;-90
2023/05/12 12:18:51;;;;;;;5.45;3.10;;;18.40;99.90;;;;;;5063479;28;20040;-92
2023/05/12 12:21:17;;;;;;;7.93;3.25;;;18.40;99.90;;;;;;5063535;28;20108;-92
2023/05/12 12:23:42;;;;;;;5.70;3.08;;;18.50;99.90;;;;;;5058560;28;20381;-90
2023/05/12 12:26:08;;;;;;;6.07;3.33;;;18.50;99.90;;;;;;5044591;28;20097;-89
2023/05/12 12:28:34;;;;;;;11.85;3.53;;;18.50;98.40;;;;;;5061448;28;20071;-90
2023/05/12 12:31:00;;;;;;;6.30;3.00;;;18.50;99.10;;;;;;5055192;28;20096;-92
2023/05/12 12:33:25;;;;;;;8.38;2.92;;;18.60;99.30;;;;;;5042454;28;20039;-90
2023/05/12 12:35:51;;;;;;;11.48;3.08;;;18.70;99.20;;;;;;5070428;28;20036;-90
2023/05/12 12:38:17;;;;;;;13.30;3.00;;;18.70;99.90;;;;;;5068309;28;20032;-90
2023/05/12 12:40:43;;;;;;;5.15;3.13;;;18.70;99.90;;;;;;5064582;28;20041;-92